Time;durP1;ratioP1;P1;durP2;ratioP2;P2;SDS_P1;SDS_P2;PMS_P1;PMS_P2;Temp;Humidity;BMP_temperature;BMP_pressure;BME280_temperature;BME280_humidity;BME280_pressure;Samples;Min_cycle;Max_cycle;Signal;HPM_P1;HPM_P2
2022/06/06 00:02:13;;;;;;;9.13;5.13;;;614.70;2432.00;;;;;;4990158;28;20034;-76
2022/06/06 00:04:39;;;;;;;9.85;5.63;;;614.70;2432.00;;;;;;4990440;28;20065;-76
2022/06/06 00:07:05;;;;;;;7.70;5.55;;;614.70;2432.00;;;;;;4990066;28;20031;-77
2022/06/06 00:09:32;;;;;;;8.07;5.60;;;614.60;2432.00;;;;;;4973886;28;20022;-76
2022/06/06 00:11:59;;;;;;;10.00;5.43;;;615.00;2432.00;;;;;;4976785;28;20525;-77
2022/06/06 00:14:25;;;;;;;8.57;5.07;;;614.60;2432.00;;;;;;4970814;28;20473;-77
2022/06/06 00:16:51;;;;;;;7.60;5.25;;;614.50;2432.00;;;;;;4964386;28;20034;-76
2022/06/06 00:19:17;;;;;;;6.65;5.40;;;614.40;2432.00;;;;;;4979378;28;20098;-77
2022/06/06 00:21:43;;;;;;;7.25;4.90;;;589.70;2432.00;;;;;;4984461;28;20042;-76
2022/06/06 00:24:10;;;;;;;8.20;5.50;;;589.70;2432.00;;;;;;4973871;28;20041;-76
2022/06/06 00:26:35;;;;;;;12.00;6.22;;;589.70;2432.00;;;;;;4971621;28;20026;-76
2022/06/06 00:29:03;;;;;;;6.93;5.88;;;589.60;2432.00;;;;;;4988910;28;20544;-77
2022/06/06 00:37:15;;;;;;;10.93;5.50;;;;;;;;;;4988618;28;20041;-76
2022/06/06 00:39:43;;;;;;;7.18;5.55;;;589.40;2432.00;;;;;;4987334;28;20133;-76
2022/06/06 00:42:23;;;;;;;8.93;6.15;;;589.40;2432.00;;;;;;4988661;28;20038;-76
2022/06/06 00:45:21;;;;;;;6.80;5.78;;;589.40;2432.00;;;;;;5009184;28;20034;-77
2022/06/06 00:48:04;;;;;;;6.95;5.93;;;589.40;2432.00;;;;;;5007336;28;20042;-76
2022/06/06 00:50:48;;;;;;;10.65;6.13;;;589.30;2432.00;;;;;;5011406;28;20101;-76
2022/06/06 00:53:17;;;;;;;9.35;6.55;;;589.30;2432.00;;;;;;4996962;28;20022;-76
2022/06/06 00:55:48;;;;;;;8.18;6.53;;;589.20;2432.00;;;;;;5013321;28;20080;-76
2022/06/06 00:58:19;;;;;;;7.82;6.40;;;589.30;2432.00;;;;;;5007501;28;20109;-77
2022/06/06 01:00:46;;;;;;;8.25;6.45;;;589.20;2432.00;;;;;;4997174;28;20080;-76
2022/06/06 01:03:15;;;;;;;8.52;6.25;;;589.10;2432.00;;;;;;5007555;28;20073;-75
2022/06/06 01:05:42;;;;;;;9.45;6.40;;;589.10;2432.00;;;;;;5013176;28;20045;-77
2022/06/06 01:08:08;;;;;;;7.22;5.70;;;589.10;2432.00;;;;;;5049657;28;20054;-76
2022/06/06 01:10:35;;;;;;;7.57;5.78;;;589.00;2432.00;;;;;;5077720;28;20028;-76
2022/06/06 01:13:02;;;;;;;9.60;5.75;;;588.90;2432.00;;;;;;5094303;28;20389;-76
2022/06/06 01:15:47;;;;;;;6.90;5.60;;;589.00;2432.00;;;;;;5097404;28;20020;-76
2022/06/06 01:18:26;;;;;;;8.43;5.80;;;589.00;2432.00;;;;;;5115542;28;20016;-76
2022/06/06 01:21:17;;;;;;;10.38;5.43;;;589.00;2432.00;;;;;;5097016;28;20019;-76
2022/06/06 01:23:58;;;;;;;7.85;4.78;;;589.00;2432.00;;;;;;5115035;28;20020;-75
2022/06/06 01:26:40;;;;;;;9.35;5.28;;;589.00;2432.00;;;;;;5112337;28;20032;-76
2022/06/06 01:29:16;;;;;;;6.43;5.68;;;589.00;2432.00;;;;;;5112230;28;20127;-76
2022/06/06 01:31:48;;;;;;;8.80;5.30;;;589.00;2432.00;;;;;;5096686;28;20110;-76
2022/06/06 01:34:24;;;;;;;8.65;5.70;;;589.00;2432.00;;;;;;5094162;28;20039;-76
2022/06/06 01:36:52;;;;;;;10.65;6.25;;;589.00;2432.00;;;;;;5109296;28;20095;-76
2022/06/06 01:39:21;;;;;;;6.57;5.68;;;589.10;2432.00;;;;;;5096610;28;20054;-76
2022/06/06 01:42:28;;;;;;;7.82;5.70;;;589.00;2432.00;;;;;;5096824;28;20080;-76
2022/06/06 01:45:25;;;;;;;7.10;5.95;;;589.00;2432.00;;;;;;5106533;28;20066;-76
2022/06/06 01:47:56;;;;;;;7.22;5.03;;;588.80;2432.00;;;;;;5025265;28;20030;-76
2022/06/06 01:50:23;;;;;;;6.70;5.55;;;589.00;2432.00;;;;;;5014965;28;20052;-76
2022/06/06 01:53:01;;;;;;;7.28;5.60;;;588.80;2432.00;;;;;;5029696;28;20068;-76
2022/06/06 01:55:29;;;;;;;7.05;5.90;;;588.80;2432.00;;;;;;5031956;28;20025;-76
2022/06/06 01:58:01;;;;;;;9.18;6.25;;;588.80;2432.00;;;;;;5015206;28;20376;-76
2022/06/06 02:00:28;;;;;;;11.00;6.13;;;564.10;2432.00;;;;;;5014051;28;20029;-76
2022/06/06 02:02:53;;;;;;;7.93;5.93;;;564.10;2432.00;;;;;;5029997;28;20017;-77
2022/06/06 02:05:20;;;;;;;7.88;5.22;;;564.10;2432.00;;;;;;5015185;28;20156;-76
2022/06/06 02:07:46;;;;;;;6.90;5.70;;;564.10;2432.00;;;;;;5012318;28;20491;-76
2022/06/06 02:10:14;;;;;;;8.73;5.70;;;564.10;2432.00;;;;;;5011229;28;20099;-76
2022/06/06 02:12:40;;;;;;;7.47;5.93;;;564.10;2432.00;;;;;;5011398;28;20160;-76
2022/06/06 02:15:09;;;;;;;10.68;5.88;;;564.10;2432.00;;;;;;5015191;28;20031;-76
2022/06/06 02:17:35;;;;;;;9.57;5.80;;;564.10;2432.00;;;;;;5031500;28;20079;-77
2022/06/06 02:20:04;;;;;;;8.93;6.18;;;564.10;2432.00;;;;;;5031726;28;20123;-77
2022/06/06 02:22:31;;;;;;;9.95;5.57;;;564.10;2432.00;;;;;;5014851;28;20096;-76
2022/06/06 02:24:57;;;;;;;8.60;6.20;;;564.10;2432.00;;;;;;5083473;28;20059;-77
2022/06/06 02:27:23;;;;;;;8.90;5.95;;;564.00;2432.00;;;;;;5095957;28;20020;-76
2022/06/06 02:29:49;;;;;;;11.57;5.82;;;564.00;2432.00;;;;;;5101205;28;20093;-75
2022/06/06 02:32:15;;;;;;;7.25;6.03;;;564.00;2432.00;;;;;;5090852;28;20032;-76
2022/06/06 02:34:40;;;;;;;9.02;6.72;;;564.00;2432.00;;;;;;5069746;28;20480;-76
2022/06/06 02:37:06;;;;;;;9.07;6.30;;;563.90;2432.00;;;;;;5090490;28;20047;-77
2022/06/06 02:39:32;;;;;;;9.00;6.20;;;563.90;2432.00;;;;;;5071240;28;20119;-76
2022/06/06 02:41:59;;;;;;;8.43;5.82;;;563.90;2432.00;;;;;;5091949;28;20095;-76
2022/06/06 02:44:25;;;;;;;11.05;6.10;;;563.80;2432.00;;;;;;5069519;28;20035;-76
2022/06/06 02:46:51;;;;;;;10.05;6.60;;;563.80;2432.00;;;;;;5093429;28;20420;-76
2022/06/06 02:49:17;;;;;;;10.15;6.50;;;563.70;2432.00;;;;;;5074964;28;20020;-77
2022/06/06 02:51:43;;;;;;;11.45;6.30;;;563.70;2432.00;;;;;;5090440;28;20024;-76
2022/06/06 02:54:09;;;;;;;7.97;5.80;;;563.70;2432.00;;;;;;5071706;28;20024;-76
2022/06/06 02:56:35;;;;;;;6.75;5.72;;;563.80;2432.00;;;;;;5073450;28;20107;-76
2022/06/06 02:59:04;;;;;;;8.43;5.90;;;563.70;2432.00;;;;;;5089307;28;20032;-76
2022/06/06 03:01:30;;;;;;;9.43;5.55;;;563.70;2432.00;;;;;;5074751;28;20030;-76
2022/06/06 03:03:56;;;;;;;16.00;7.00;;;563.70;2432.00;;;;;;5062526;28;20111;-75
2022/06/06 03:06:27;;;;;;;9.05;5.80;;;563.70;2432.00;;;;;;5091620;28;20028;-76
2022/06/06 03:09:06;;;;;;;6.30;5.43;;;563.70;2432.00;;;;;;5089113;28;20028;-76
2022/06/06 03:11:50;;;;;;;9.40;6.43;;;563.70;2432.00;;;;;;5067862;28;20400;-76
2022/06/06 03:14:53;;;;;;;8.07;6.07;;;563.60;2432.00;;;;;;5090685;28;20020;-76
2022/06/06 03:23:42;;;;;;;6.55;5.50;;;563.50;2432.00;;;;;;5089937;28;20653;-76
2022/06/06 03:26:11;;;;;;;5.90;5.03;;;563.30;2432.00;;;;;;5060649;28;20032;-76
2022/06/06 03:29:14;;;;;;;6.82;5.03;;;563.40;2432.00;;;;;;5072147;28;20115;-76
2022/06/06 03:31:45;;;;;;;9.02;4.88;;;563.40;2432.00;;;;;;5106889;28;20101;-76
2022/06/06 03:34:45;;;;;;;6.97;5.43;;;563.40;2432.00;;;;;;5091773;28;20020;-76
2022/06/06 03:37:23;;;;;;;9.13;5.78;;;563.40;2432.00;;;;;;5112876;28;20442;-76
2022/06/06 03:39:54;;;;;;;7.78;5.80;;;563.40;2432.00;;;;;;5091577;28;20142;-76
2022/06/06 03:42:36;;;;;;;11.27;6.28;;;563.40;2432.00;;;;;;5104294;28;20485;-76
2022/06/06 03:45:48;;;;;;;7.78;5.80;;;563.30;2432.00;;;;;;5111328;28;20574;-76
2022/06/06 03:48:38;;;;;;;7.90;5.53;;;563.20;2432.00;;;;;;5049065;28;20037;-76
2022/06/06 03:51:33;;;;;;;10.05;5.38;;;563.20;2432.00;;;;;;5042197;28;20096;-76
2022/06/06 03:54:22;;;;;;;10.27;6.57;;;563.20;2432.00;;;;;;5033074;28;20486;-76
2022/06/06 03:57:05;;;;;;;11.07;5.47;;;563.20;2432.00;;;;;;5012891;28;20037;-76
2022/06/06 03:59:32;;;;;;;5.90;5.00;;;563.30;2432.00;;;;;;5032618;28;20029;-76
2022/06/06 04:02:03;;;;;;;7.03;5.53;;;563.40;2432.00;;;;;;5030376;28;20472;-76
2022/06/06 04:04:31;;;;;;;10.00;5.35;;;563.40;2432.00;;;;;;5032563;28;20036;-76
2022/06/06 04:06:59;;;;;;;7.47;5.40;;;563.40;2432.00;;;;;;5047110;28;20115;-76
2022/06/06 04:09:27;;;;;;;6.80;4.97;;;563.50;2432.00;;;;;;5041022;28;20103;-76
2022/06/06 04:12:12;;;;;;;6.90;4.93;;;563.50;2432.00;;;;;;5049106;28;20033;-76
2022/06/06 04:14:56;;;;;;;11.38;5.75;;;563.40;2432.00;;;;;;5047558;28;20024;-76
2022/06/06 04:17:32;;;;;;;8.23;5.57;;;563.40;2432.00;;;;;;5043942;28;20049;-77
2022/06/06 04:20:07;;;;;;;9.25;5.60;;;563.50;2432.00;;;;;;5032712;28;20016;-77
2022/06/06 04:22:48;;;;;;;7.05;5.40;;;563.50;2432.00;;;;;;5032550;28;20552;-76
2022/06/06 04:25:24;;;;;;;9.48;6.70;;;563.50;2432.00;;;;;;5092852;28;20122;-76
2022/06/06 04:28:12;;;;;;;6.88;5.35;;;563.50;2432.00;;;;;;5109138;28;20065;-76
2022/06/06 04:31:09;;;;;;;8.18;4.95;;;563.50;2432.00;;;;;;5092702;28;20089;-73
2022/06/06 04:33:45;;;;;;;;;;;563.60;2432.00;;;;;;5092202;28;20017;-76
2022/06/06 04:36:24;;;;;;;8.43;5.32;;;563.50;2432.00;;;;;;5088540;28;19904;-76
2022/06/06 04:39:01;;;;;;;14.98;4.60;;;563.50;2432.00;;;;;;5091295;28;20024;-76
2022/06/06 04:41:42;;;;;;;7.50;4.50;;;563.50;2432.00;;;;;;5073589;28;20070;-76
2022/06/06 04:44:23;;;;;;;9.10;5.10;;;563.60;2432.00;;;;;;5091355;28;20028;-75
2022/06/06 04:47:03;;;;;;;5.60;4.20;;;563.60;2432.00;;;;;;5091497;28;20099;-76
2022/06/06 04:49:31;;;;;;;7.65;5.00;;;563.60;2432.00;;;;;;5070604;28;20024;-75
2022/06/06 04:51:59;;;;;;;9.43;4.55;;;563.60;2432.00;;;;;;5064926;28;20024;-78
2022/06/06 04:54:26;;;;;;;8.98;4.53;;;563.60;2432.00;;;;;;5080550;28;20020;-78
2022/06/06 04:56:54;;;;;;;6.47;3.97;;;563.70;2432.00;;;;;;5059483;28;20021;-78
2022/06/06 04:59:23;;;;;;;6.55;4.47;;;563.70;2432.00;;;;;;5059828;28;20115;-80
2022/06/06 05:01:49;;;;;;;8.68;4.50;;;563.70;2432.00;;;;;;5059054;28;20027;-84
2022/06/06 05:04:14;;;;;;;7.93;4.82;;;563.80;2432.00;;;;;;5042645;28;20017;-81
2022/06/06 05:07:11;;;;;;;10.75;5.90;;;563.80;2432.00;;;;;;5053137;28;20035;-80
2022/06/06 05:09:46;;;;;;;7.70;4.72;;;564.00;2432.00;;;;;;5054933;28;20020;-79
2022/06/06 05:12:57;;;;;;;8.60;4.53;;;564.10;2432.00;;;;;;5059741;28;20116;-78
2022/06/06 05:15:35;;;;;;;5.90;4.10;;;564.10;2432.00;;;;;;4996746;28;20304;-79
2022/06/06 05:18:22;;;;;;;5.00;3.67;;;588.80;2432.00;;;;;;5007348;28;20037;-77
2022/06/06 05:20:54;;;;;;;5.70;4.05;;;588.90;2432.00;;;;;;5025463;28;20096;-78
2022/06/06 05:23:38;;;;;;;4.43;3.80;;;589.00;2432.00;;;;;;5003142;28;20030;-80
2022/06/06 05:26:12;;;;;;;6.80;4.03;;;589.10;2432.00;;;;;;5018914;28;20049;-76
2022/06/06 05:29:15;;;;;;;5.43;4.10;;;589.20;2432.00;;;;;;5012417;28;20022;-77
2022/06/06 05:31:58;;;;;;;5.78;4.40;;;589.30;2432.00;;;;;;5028323;28;20487;-77
2022/06/06 05:34:45;;;;;;;7.78;4.72;;;589.30;2432.00;;;;;;5042560;28;20028;-77
2022/06/06 05:37:39;;;;;;;8.20;4.45;;;589.30;2432.00;;;;;;5025447;28;20033;-77
2022/06/06 05:40:07;;;;;;;5.68;3.92;;;589.40;2432.00;;;;;;5043631;28;20116;-77
2022/06/06 05:42:47;;;;;;;6.07;4.10;;;589.40;2432.00;;;;;;5038357;28;20610;-78
2022/06/06 05:45:30;;;;;;;5.95;4.13;;;589.40;2432.00;;;;;;5031837;28;20045;-79
2022/06/06 05:48:07;;;;;;;5.75;4.65;;;589.40;2432.00;;;;;;5038922;28;20055;-77
2022/06/06 05:51:06;;;;;;;6.88;4.72;;;589.40;2432.00;;;;;;5033816;28;20045;-77
2022/06/06 05:53:54;;;;;;;7.03;4.05;;;589.40;2432.00;;;;;;5012700;28;20025;-77
2022/06/06 05:56:58;;;;;;;8.45;4.35;;;589.60;2432.00;;;;;;5049053;28;20040;-78
2022/06/06 06:00:05;;;;;;;7.70;4.43;;;589.70;2432.00;;;;;;5042033;28;20025;-78
2022/06/06 06:03:01;;;;;;;7.40;4.93;;;589.70;2432.00;;;;;;5023632;28;20028;-79
2022/06/06 06:05:55;;;;;;;8.02;4.78;;;589.60;2432.00;;;;;;5037551;28;20115;-79
2022/06/06 06:08:39;;;;;;;11.18;5.18;;;589.40;2432.00;;;;;;5025922;28;20029;-77
2022/06/06 06:11:20;;;;;;;10.60;4.97;;;589.40;2432.00;;;;;;5041512;28;20038;-79
2022/06/06 06:14:02;;;;;;;15.68;4.50;;;589.40;2432.00;;;;;;5037294;28;20043;-80
2022/06/06 06:16:32;;;;;;;11.95;4.93;;;589.30;2432.00;;;;;;5024704;28;20026;-77
2022/06/06 06:19:09;;;;;;;11.15;5.10;;;589.30;2432.00;;;;;;5022202;28;20017;-79
2022/06/06 06:21:53;;;;;;;8.18;4.53;;;589.30;2432.00;;;;;;5032058;28;20073;-78
2022/06/06 06:24:26;;;;;;;6.45;4.25;;;589.40;2432.00;;;;;;5023872;28;20033;-87
2022/06/06 06:26:55;;;;;;;6.30;4.07;;;589.50;2432.00;;;;;;5011435;28;20082;-77
2022/06/06 06:29:20;;;;;;;6.53;3.88;;;589.50;2432.00;;;;;;5025568;28;20034;-79
2022/06/06 06:32:10;;;;;;;7.40;3.75;;;589.60;2432.00;;;;;;5107150;28;20031;-77
2022/06/06 06:35:07;;;;;;;10.23;4.05;;;589.60;2380.80;;;;;;5105322;28;20036;-77
2022/06/06 06:37:49;;;;;;;8.30;3.35;;;589.70;2432.00;;;;;;5085742;28;20028;-78
2022/06/06 06:40:24;;;;;;;9.35;4.00;;;589.60;2432.00;;;;;;5080267;28;20036;-77
2022/06/06 06:43:10;;;;;;;5.85;3.60;;;589.60;2432.00;;;;;;5084964;28;20019;-78
2022/06/06 06:45:42;;;;;;;9.25;4.18;;;589.70;2432.00;;;;;;5032570;28;20125;-78
2022/06/06 06:48:12;;;;;;;10.98;4.68;;;589.70;2432.00;;;;;;5035582;28;20036;-78
2022/06/06 06:50:54;;;;;;;9.07;3.70;;;589.70;2380.80;;;;;;5023734;28;20034;-79
2022/06/06 06:53:44;;;;;;;4.45;3.55;;;614.40;2432.00;;;;;;5030124;28;20021;-78
2022/06/06 06:56:16;;;;;;;7.47;3.97;;;589.70;2304.00;;;;;;5035595;28;20029;-77
2022/06/06 06:58:54;;;;;;;7.63;3.88;;;589.40;2329.60;;;;;;5027890;28;20490;-77
2022/06/06 07:01:35;;;;;;;30.17;4.78;;;589.40;2406.40;;;;;;5022375;28;20030;-78
2022/06/06 07:10:33;;;;;;;6.13;3.83;;;589.50;2355.20;;;;;;4986821;28;20473;-80
2022/06/06 07:13:12;;;;;;;6.10;4.35;;;589.30;2329.60;;;;;;4984621;28;20421;-78
2022/06/06 07:15:41;;;;;;;11.57;3.05;;;589.40;2432.00;;;;;;4969018;28;20027;-79
2022/06/06 07:18:10;;;;;;;7.78;3.72;;;589.40;2432.00;;;;;;4974581;28;20035;-79
2022/06/06 07:20:40;;;;;;;8.45;4.07;;;589.50;2432.00;;;;;;4974411;28;20026;-80
2022/06/06 07:23:11;;;;;;;6.25;4.07;;;589.70;2380.80;;;;;;4980562;28;20038;-77
2022/06/06 07:25:50;;;;;;;6.88;3.70;;;589.70;2329.60;;;;;;4997139;28;20038;-76
2022/06/06 07:28:21;;;;;;;5.20;3.85;;;589.70;2252.80;;;;;;4992606;28;20066;-77
2022/06/06 07:30:55;;;;;;;9.35;3.80;;;589.70;2329.60;;;;;;4984282;28;20186;-77
2022/06/06 07:33:24;;;;;;;5.93;3.67;;;589.70;2432.00;;;;;;4980149;28;20038;-80
2022/06/06 07:36:17;;;;;;;5.13;3.35;;;589.70;2329.60;;;;;;4982987;28;20120;-81
2022/06/06 07:39:01;;;;;;;5.20;3.35;;;589.70;2355.20;;;;;;4989059;28;20449;-80
2022/06/06 07:41:42;;;;;;;6.63;3.58;;;589.70;2329.60;;;;;;5006433;28;20026;-80
2022/06/06 07:44:50;;;;;;;5.65;3.47;;;589.70;2278.40;;;;;;5058942;28;20076;-79
2022/06/06 07:47:41;;;;;;;7.55;3.20;;;589.60;2278.40;;;;;;5020473;28;20523;-78
2022/06/06 07:50:20;;;;;;;7.25;3.25;;;589.40;2201.60;;;;;;5030068;28;20033;-78
2022/06/06 07:53:01;;;;;;;3.92;2.88;;;589.40;2201.60;;;;;;5033166;28;20041;-77
2022/06/06 07:55:38;;;;;;;7.90;3.10;;;589.30;2227.20;;;;;;5038775;28;20021;-78
2022/06/06 07:58:23;;;;;;;6.80;3.50;;;589.30;2304.00;;;;;;5019264;28;20033;-81
2022/06/06 08:01:05;;;;;;;6.18;3.47;;;589.30;2355.20;;;;;;5037458;28;20033;-78
2022/06/06 08:03:50;;;;;;;8.05;3.30;;;589.30;2406.40;;;;;;5040942;28;20021;-78
2022/06/06 08:06:21;;;;;;;4.47;3.28;;;589.20;2432.00;;;;;;5013303;28;20052;-77
2022/06/06 08:08:55;;;;;;;5.13;2.70;;;589.20;2329.60;;;;;;5029838;28;20025;-77
2022/06/06 08:11:31;;;;;;;7.35;3.40;;;589.20;2355.20;;;;;;5013235;28;20103;-77
2022/06/06 08:14:31;;;;;;;6.32;2.70;;;589.10;2432.00;;;;;;5046925;28;20021;-79
2022/06/06 08:17:02;;;;;;;10.55;3.90;;;589.00;2432.00;;;;;;5037500;28;20057;-76
2022/06/06 08:19:33;;;;;;;10.90;3.80;;;588.90;2432.00;;;;;;5043652;28;20017;-77
2022/06/06 08:22:00;;;;;;;6.38;3.22;;;564.10;2432.00;;;;;;5041658;28;20435;-77
2022/06/06 08:24:32;;;;;;;12.43;3.60;;;588.90;2432.00;;;;;;5079124;28;20028;-76
2022/06/06 08:27:01;;;;;;;6.57;3.25;;;588.80;2432.00;;;;;;5108478;28;20125;-80
2022/06/06 08:29:29;;;;;;;15.88;4.60;;;588.90;2432.00;;;;;;5080079;28;20422;-81
2022/06/06 08:31:55;;;;;;;9.52;3.40;;;588.90;2432.00;;;;;;5077354;28;20073;-77
2022/06/06 08:34:21;;;;;;;8.32;3.30;;;564.10;2201.60;;;;;;5088875;28;20032;-81
2022/06/06 08:37:11;;;;;;;7.63;3.42;;;563.90;2252.80;;;;;;5091563;28;20013;-79
2022/06/06 08:39:42;;;;;;;7.35;3.78;;;563.80;2278.40;;;;;;5081487;28;20123;-78
2022/06/06 08:42:08;;;;;;;7.70;3.30;;;563.80;2201.60;;;;;;5084060;28;20058;-81
2022/06/06 08:44:42;;;;;;;13.57;3.30;;;563.40;2227.20;;;;;;5078931;28;20478;-77
2022/06/06 08:47:14;;;;;;;6.65;2.70;;;563.80;2252.80;;;;;;5078538;28;20040;-76
2022/06/06 08:53:02;;;;;;;5.78;2.50;;;563.90;2329.60;;;;;;5101531;28;20043;-76
2022/06/06 08:55:55;;;;;;;8.45;2.92;;;563.80;2304.00;;;;;;5098749;28;20015;-77
2022/06/06 08:58:41;;;;;;;7.22;3.05;;;563.90;2252.80;;;;;;5103102;28;20020;-76
2022/06/06 09:01:40;;;;;;;8.68;2.90;;;564.10;2278.40;;;;;;5084335;28;20040;-77
2022/06/06 09:04:39;;;;;;;4.32;2.60;;;588.80;2176.00;;;;;;5071701;28;20637;-77
2022/06/06 09:07:37;;;;;;;6.25;2.50;;;564.10;2227.20;;;;;;5077918;28;20036;-77
2022/06/06 09:10:28;;;;;;;4.22;2.85;;;588.90;2278.40;;;;;;5013453;28;20029;-77
2022/06/06 09:13:27;;;;;;;6.05;2.60;;;564.10;2304.00;;;;;;5030195;28;20534;-78
2022/06/06 09:16:17;;;;;;;5.70;2.90;;;588.80;2329.60;;;;;;5016647;28;20153;-80
2022/06/06 09:19:11;;;;;;;5.25;2.67;;;589.00;2432.00;;;;;;5027402;28;20380;-77
2022/06/06 09:22:10;;;;;;;6.85;3.03;;;589.30;2355.20;;;;;;5015207;28;20029;-76
2022/06/06 09:24:54;;;;;;;11.57;3.72;;;589.40;2406.40;;;;;;5028929;28;20029;-81
2022/06/06 09:27:44;;;;;;;5.88;3.22;;;589.60;2176.00;;;;;;5027986;28;20495;-76
2022/06/06 09:30:43;;;;;;;8.30;3.13;;;589.70;2278.40;;;;;;5032156;28;20554;-77
2022/06/06 09:33:12;;;;;;;8.25;3.30;;;614.40;2201.60;;;;;;5033223;28;20092;-78
2022/06/06 09:36:04;;;;;;;4.85;2.80;;;614.50;2150.40;;;;;;5033117;28;20105;-77
2022/06/06 09:39:03;;;;;;;4.20;2.60;;;614.60;2176.00;;;;;;5030896;28;20547;-78
2022/06/06 09:41:48;;;;;;;8.52;3.05;;;614.70;2022.40;;;;;;5033309;28;20423;-79
2022/06/06 09:45:01;;;;;;;5.13;2.72;;;614.80;2022.40;;;;;;5017124;28;20056;-79
2022/06/06 09:47:48;;;;;;;7.32;2.42;;;614.90;1971.20;;;;;;4982119;28;20524;-80
2022/06/06 09:50:33;;;;;;;10.60;3.20;;;615.10;1945.60;;;;;;4996737;28;20045;-78
2022/06/06 09:59:01;;;;;;;5.38;2.50;;;615.10;1971.20;;;;;;5012636;28;20115;-78
2022/06/06 10:00:15;;;;;;;9.63;4.00;;;640.00;2022.40;;;;;;5008836;28;20033;-77
2022/06/06 10:03:17;;;;;;;9.30;4.47;;;640.10;1996.80;;;;;;5003652;28;20117;-79
2022/06/06 10:05:56;;;;;;;7.68;4.55;;;640.10;2022.40;;;;;;5012765;28;20030;-79
2022/06/06 10:08:43;;;;;;;7.15;4.25;;;640.30;1971.20;;;;;;5003930;28;20126;-81
2022/06/06 10:11:30;;;;;;;8.35;4.68;;;640.40;1971.20;;;;;;5001368;28;20392;-79
2022/06/06 10:14:08;;;;;;;8.13;4.72;;;640.70;2022.40;;;;;;5002652;28;20023;-78
2022/06/06 10:16:52;;;;;;;9.55;4.30;;;640.80;1996.80;;;;;;5002314;28;20535;-78
2022/06/06 10:19:44;;;;;;;5.78;3.28;;;665.70;1971.20;;;;;;5005110;28;20400;-79
2022/06/06 10:22:16;;;;;;;6.70;3.00;;;666.00;1920.00;;;;;;4995982;28;20480;-79
2022/06/06 10:25:02;;;;;;;5.20;3.10;;;666.20;1766.40;;;;;;5091017;28;20494;-78
2022/06/06 10:27:46;;;;;;;6.50;3.65;;;666.30;1766.40;;;;;;5060525;28;20021;-80
2022/06/06 10:30:38;;;;;;;10.73;3.17;;;691.60;1817.60;;;;;;5076008;28;20097;-81
2022/06/06 10:33:27;;;;;;;7.65;3.15;;;691.20;1612.80;;;;;;5076053;28;20137;-81
2022/06/06 10:36:18;;;;;;;6.20;3.70;;;691.30;1689.60;;;;;;5094412;28;20032;-80
2022/06/06 10:39:02;;;;;;;5.72;2.70;;;691.70;1740.80;;;;;;5093636;28;20062;-80
2022/06/06 10:41:47;;;;;;;5.32;2.88;;;692.10;1612.80;;;;;;5066465;28;20024;-80
2022/06/06 10:44:31;;;;;;;4.22;2.75;;;717.10;1587.20;;;;;;5059884;28;20039;-79
2022/06/06 10:47:15;;;;;;;6.68;2.80;;;717.30;1612.80;;;;;;5066791;28;20032;-80
2022/06/06 10:49:59;;;;;;;3.40;2.70;;;717.40;1510.40;;;;;;5084610;28;20020;-79
2022/06/06 10:52:44;;;;;;;9.50;3.55;;;717.50;1561.60;;;;;;5066527;28;20029;-81
2022/06/06 10:55:37;;;;;;;5.88;2.80;;;717.70;1587.20;;;;;;5061996;28;20524;-78
2022/06/06 10:58:22;;;;;;;9.77;3.35;;;742.50;1484.80;;;;;;5074852;28;20382;-78
2022/06/06 11:00:48;;;;;;;13.00;3.15;;;742.60;1561.60;;;;;;5090898;28;20090;-79
2022/06/06 11:03:42;;;;;;;3.40;2.75;;;742.60;1510.40;;;;;;5093259;28;20076;-79
2022/06/06 11:06:33;;;;;;;8.57;3.50;;;742.80;1484.80;;;;;;5072774;28;20048;-79
2022/06/06 11:09:02;;;;;;;5.93;3.25;;;742.90;1536.00;;;;;;5073888;28;20034;-78
2022/06/06 11:12:17;;;;;;;5.80;3.17;;;742.90;1536.00;;;;;;5089209;28;20016;-77
2022/06/06 11:14:44;;;;;;;4.05;2.70;;;768.10;1510.40;;;;;;5041477;28;20072;-78
2022/06/06 11:17:31;;;;;;;5.47;2.60;;;743.20;1536.00;;;;;;5022695;28;20034;-79
2022/06/06 11:20:34;;;;;;;5.82;3.20;;;743.10;1536.00;;;;;;5050720;28;20025;-79
2022/06/06 11:23:06;;;;;;;6.57;3.15;;;743.10;1484.80;;;;;;5033794;28;20028;-78
2022/06/06 11:25:51;;;;;;;6.18;3.20;;;743.30;1459.20;;;;;;5045771;28;20037;-79
2022/06/06 11:28:46;;;;;;;4.22;2.55;;;768.10;1408.00;;;;;;5029944;28;20029;-79
2022/06/06 11:31:11;;;;;;;8.20;3.10;;;768.40;1382.40;;;;;;5022129;28;20057;-79
2022/06/06 11:34:14;;;;;;;3.33;2.60;;;768.40;1433.60;;;;;;5032583;28;20175;-78
2022/06/06 11:37:13;;;;;;;2.67;2.05;;;768.40;1433.60;;;;;;5038278;28;20028;-79
2022/06/06 11:39:47;;;;;;;5.88;2.45;;;768.70;1408.00;;;;;;5046561;28;20136;-79
2022/06/06 11:42:44;;;;;;;6.22;2.45;;;768.70;1356.80;;;;;;5022829;28;20040;-78
2022/06/06 11:45:31;;;;;;;5.35;2.78;;;768.70;1356.80;;;;;;5016482;28;20052;-77
2022/06/06 11:48:17;;;;;;;5.95;2.80;;;768.70;1408.00;;;;;;5039317;28;20029;-77
2022/06/06 11:50:49;;;;;;;3.33;2.50;;;768.80;1408.00;;;;;;5040641;28;20032;-81
2022/06/06 11:53:21;;;;;;;5.25;2.53;;;768.90;1382.40;;;;;;5070624;28;20028;-77
2022/06/06 11:56:16;;;;;;;4.55;2.33;;;768.90;1356.80;;;;;;5074132;28;20089;-79
2022/06/06 11:59:03;;;;;;;4.63;2.42;;;793.70;1408.00;;;;;;5089792;28;20382;-78
2022/06/06 12:01:32;;;;;;;5.25;2.30;;;793.60;1356.80;;;;;;5073421;28;20031;-79
2022/06/06 12:04:25;;;;;;;3.33;2.53;;;793.80;1305.60;;;;;;5089995;28;20023;-78
2022/06/06 12:07:16;;;;;;;2.97;2.28;;;793.70;1382.40;;;;;;5091243;28;20031;-82
2022/06/06 12:09:59;;;;;;;3.88;2.80;;;793.90;1408.00;;;;;;5089909;28;20090;-80
2022/06/06 12:12:31;;;;;;;3.72;2.30;;;793.80;1356.80;;;;;;5079859;28;20027;-75
2022/06/06 12:15:29;;;;;;;3.10;2.70;;;793.90;1382.40;;;;;;5091406;28;20024;-77
2022/06/06 12:18:45;;;;;;;4.22;2.70;;;794.00;1408.00;;;;;;5021454;28;20071;-76
2022/06/06 12:21:35;;;;;;;4.55;2.70;;;793.70;1382.40;;;;;;4970342;28;20026;-77
2022/06/06 12:24:20;;;;;;;3.83;2.88;;;793.80;1356.80;;;;;;4972356;28;20137;-77
2022/06/06 12:27:08;;;;;;;5.35;2.97;;;793.90;1382.40;;;;;;4984895;28;20043;-77
2022/06/06 12:30:03;;;;;;;4.55;2.65;;;794.10;1356.80;;;;;;4989050;28;20038;-78
2022/06/06 12:32:47;;;;;;;7.53;3.23;;;794.00;1408.00;;;;;;4989134;28;20030;-77
2022/06/06 12:35:26;;;;;;;7.63;2.95;;;794.00;1408.00;;;;;;4989653;28;20050;-77
2022/06/06 12:38:14;;;;;;;3.78;2.55;;;794.10;1433.60;;;;;;4988968;28;20649;-75
2022/06/06 12:40:48;;;;;;;4.07;2.50;;;794.20;1382.40;;;;;;4989913;28;20041;-77
2022/06/06 12:43:36;;;;;;;6.78;2.90;;;794.20;1382.40;;;;;;4990560;28;20031;-77
2022/06/06 12:46:32;;;;;;;4.50;2.22;;;794.30;1331.20;;;;;;4991241;28;20042;-78
2022/06/06 12:49:32;;;;;;;4.03;2.72;;;794.30;1331.20;;;;;;4992711;28;20034;-77
2022/06/06 12:52:36;;;;;;;6.97;2.38;;;794.30;1280.00;;;;;;4976433;28;20019;-77
2022/06/06 12:55:30;;;;;;;3.90;2.08;;;794.50;1254.40;;;;;;4956530;28;20046;-76
2022/06/06 12:58:13;;;;;;;2.72;2.05;;;794.50;1228.80;;;;;;4991984;28;20029;-77
2022/06/06 13:03:37;;;;;;;6.15;2.47;;;819.50;1254.40;;;;;;4982497;28;20037;-77
2022/06/06 13:06:09;;;;;;;3.33;2.05;;;819.60;1152.00;;;;;;4972058;28;20050;-76
2022/06/06 13:08:57;;;;;;;5.60;2.15;;;819.50;1100.80;;;;;;4983301;28;20041;-75
2022/06/06 13:11:48;;;;;;;3.50;2.30;;;819.40;1100.80;;;;;;4984408;28;20207;-76
2022/06/06 13:14:43;;;;;;;4.03;2.13;;;819.30;1152.00;;;;;;4985506;28;20032;-76
2022/06/06 13:17:16;;;;;;;3.42;2.05;;;819.40;1152.00;;;;;;4982017;28;20034;-77
2022/06/06 13:19:54;;;;;;;3.58;2.08;;;819.30;1177.60;;;;;;4983413;28;20508;-76
2022/06/06 13:22:19;;;;;;;3.40;1.90;;;794.50;1203.20;;;;;;4989248;28;20021;-77
2022/06/06 13:25:22;;;;;;;3.47;2.22;;;819.20;1203.20;;;;;;4988965;28;20034;-77
2022/06/06 13:27:56;;;;;;;3.45;2.67;;;819.20;1203.20;;;;;;4984389;28;20193;-76
2022/06/06 13:30:48;;;;;;;5.32;3.13;;;794.40;1203.20;;;;;;4978464;28;20105;-76
2022/06/06 13:33:33;;;;;;;5.97;2.22;;;794.40;1228.80;;;;;;5073442;28;20352;-77
2022/06/06 13:36:33;;;;;;;5.32;3.25;;;794.40;1254.40;;;;;;5076028;28;20016;-77
2022/06/06 13:39:11;;;;;;;13.88;3.17;;;819.20;1254.40;;;;;;5087509;28;20028;-76
2022/06/06 13:41:43;;;;;;;7.35;3.47;;;819.30;1254.40;;;;;;5094141;28;20553;-77
2022/06/06 13:44:45;;;;;;;4.10;2.90;;;819.30;1228.80;;;;;;5065747;28;20028;-78
2022/06/06 13:47:26;;;;;;;5.15;3.00;;;819.20;1254.40;;;;;;5098456;28;20040;-82
2022/06/06 13:50:30;;;;;;;2.85;2.22;;;819.30;1280.00;;;;;;5076797;28;20020;-77